• Join FlightAware (Why Join?)
  • Login
  • US Flag 
06:06AM EDT


 

Airport Tracker/Info


-or-


 

Live Flight TrackerFlight Track Log ✈ PDT4153 ✈ 04-May-2013 ✈ KCLT - KAGS

Flight Track Log - Related Links

Times and Time Zones

All times are in EDT time to prevent confusion due to time zone crossing. See the PDT4153 flight status page for this flight to view local times or setup timezone preferences in your user account.

Time Position Orientation Groundspeed Altitude Reporting Facility
EDT Latitude Longitude Course Direction KTS MPH feet Rate Location/Type
04:41PM 35.2269 -80.9572 249° West 148 170 1,500  Level Atlanta Center
04:42PM 35.2400 -80.9847 300° West 169 194 2,400 1,320 Climbing Atlanta Center
04:43PM 35.1209 -81.1394 244° Southwest  Level FlightAware Approximate
04:43PM 35.2336 -81.0611 264° West 187 215 4,000  Level Atlanta Center
04:44PM 35.0978 -81.2089 253° West  Level FlightAware Approximate
04:44PM 35.2306 -81.1122 266° West 193 222 4,600  Level Atlanta Center
04:45PM 35.0794 -81.2824 253° West  Level FlightAware Approximate
04:45PM 35.1922 -81.1694 231° Southwest 194 223 6,100  Level Atlanta Center
04:46PM 35.0598 -81.3555 249° West  Level FlightAware Approximate
04:46PM 35.1644 -81.2264 239° Southwest 189 217 7,200  Level Atlanta Center
04:47PM 35.1383 -81.2728 235° Southwest 192 221 8,200 1,080 Climbing Atlanta Center
04:49PM 35.0237 -81.3186 249° West  Level Estimated
04:56PM 34.6449 -81.5574 195° South  Level FlightAware Approximate
04:57PM 34.5859 -81.5770 195° South  Level FlightAware Approximate
04:58PM 34.5269 -81.5967 195° South  Level FlightAware Approximate
04:59PM 34.4679 -81.6163 195° South  Level FlightAware Approximate
05:00PM 34.4090 -81.6360 195° South  Level FlightAware Approximate
05:01PM 34.3498 -81.6548 193° South  Level FlightAware Approximate
05:02PM 34.2903 -81.6719 193° South  Level FlightAware Approximate
05:03PM 34.2308 -81.6889 193° South  Level FlightAware Approximate
05:04PM 34.1713 -81.7059 193° South  Level FlightAware Approximate
05:05PM 34.1118 -81.7231 194° South  Level FlightAware Approximate
05:06PM 34.0524 -81.7410 194° South  Level FlightAware Approximate
05:07PM 33.9931 -81.7588 194° South  Level FlightAware Approximate
05:08PM 33.9377 -81.7833 180° South  Level FlightAware Approximate
05:09PM 33.8782 -81.7999 194° South  Level FlightAware Approximate
05:10PM 33.8189 -81.8177 194° South  Level FlightAware Approximate
05:11PM 33.7595 -81.8355 194° South  Level FlightAware Approximate
05:12PM 33.7002 -81.8533 194° South  Level FlightAware Approximate
05:13PM 33.6409 -81.8711 194° South  Level FlightAware Approximate
05:14PM 33.5812 -81.8871 189° South  Level FlightAware Approximate
05:15PM 33.5209 -81.8991 189° South  Level FlightAware Approximate
05:16PM 33.4743 -81.9251 189° South  Level FlightAware Approximate
05:17PM 33.4141 -81.9381 192° South  Level FlightAware Approximate
05:18PM 33.3667 -81.9500 192° South  Level FlightAware Approximate
05:19PM 33.3699 -81.9645 192° South  Level Estimated
05:20PM 33.3699 -81.9645 192° South  Level Estimated
05:21PM 33.3699 -81.9645 192° South  Level Estimated